Terminal Aerodrome Forecast
Issued by NWS

Home | Current Version | Previous Version | Text Only | Print | Product List | Glossary On
Versions: 1 2 3 4 5 6 7 8 9 10 11 12 13 14 15
871
FTUS43 KDLH 162339
TAFHYR
TAF
KHYR 162339Z 1700/1724 VRB02KT P6SM OVC180
     FM170600 00000KT 6SM BR SCT015 OVC100
     FM170900 00000KT 4SM BR SCT015 OVC100
     FM171700 24003KT P6SM SCT100=

USA.gov is the U.S. government's official web portal to all federal, state and local government web resources and services.